sensor_id;sensor_type;location;lat;lon;timestamp;pressure;altitude;pressure_sealevel;temperature;humidity
38558;BME280;24333;42.626;23.308;2023-04-28T00:00:37;71020.75;;;-148.95;47.73
38558;BME280;24333;42.626;23.308;2023-04-28T00:28:50;71064.34;;;-148.95;48.66
38558;BME280;24333;42.626;23.308;2023-04-28T00:36:26;71074.72;;;-148.95;49.32
38558;BME280;24333;42.626;23.308;2023-04-28T00:38:56;71085.09;;;-148.95;48.81
38558;BME280;24333;42.626;23.308;2023-04-28T00:41:22;71089.22;;;-148.95;49.25
38558;BME280;24333;42.626;23.308;2023-04-28T00:43:48;71093.38;;;-148.95;49.34
38558;BME280;24333;42.626;23.308;2023-04-28T00:46:23;71095.47;;;-148.95;49.78
38558;BME280;24333;42.626;23.308;2023-04-28T00:48:49;71093.38;;;-148.95;49.56
38558;BME280;24333;42.626;23.308;2023-04-28T01:33:40;71147.34;;;-148.95;49.08
38558;BME280;24333;42.626;23.308;2023-04-28T01:36:19;71132.81;;;-148.95;49.58
38558;BME280;24333;42.626;23.308;2023-04-28T01:38:46;71143.19;;;-148.95;48.78
38558;BME280;24333;42.626;23.308;2023-04-28T01:41:17;71130.75;;;-148.95;48.33
38558;BME280;24333;42.626;23.308;2023-04-28T01:43:54;71132.81;;;-148.95;47.91
38558;BME280;24333;42.626;23.308;2023-04-28T01:46:42;71145.25;;;-148.95;48.38
38558;BME280;24333;42.626;23.308;2023-04-28T01:49:18;71147.34;;;-148.95;48.38
38558;BME280;24333;42.626;23.308;2023-04-28T01:52:03;71147.34;;;-148.95;48.70
38558;BME280;24333;42.626;23.308;2023-04-28T02:46:19;71193.00;;;-148.95;52.02
38558;BME280;24333;42.626;23.308;2023-04-28T02:48:46;71195.06;;;-148.95;52.76
38558;BME280;24333;42.626;23.308;2023-04-28T02:51:11;71199.22;;;-148.95;51.70
38558;BME280;24333;42.626;23.308;2023-04-28T02:53:38;71197.16;;;-148.95;52.77
38558;BME280;24333;42.626;23.308;2023-04-28T02:56:13;71211.66;;;-148.95;51.13
38558;BME280;24333;42.626;23.308;2023-04-28T03:26:45;71226.19;;;-148.95;49.31
38558;BME280;24333;42.626;23.308;2023-04-28T03:32:28;71226.19;;;-148.95;50.69
38558;BME280;24333;42.626;23.308;2023-04-28T05:51:39;71072.63;;;-148.95;44.57
38558;BME280;24333;42.626;23.308;2023-04-28T05:57:52;71078.84;;;-148.95;43.49
38558;BME280;24333;42.626;23.308;2023-04-28T06:01:09;71087.16;;;-148.95;43.93
38558;BME280;24333;42.626;23.308;2023-04-28T06:06:31;71076.78;;;-148.95;44.18
38558;BME280;24333;42.626;23.308;2023-04-28T06:09:54;71056.03;;;-148.95;44.64
38558;BME280;24333;42.626;23.308;2023-04-28T08:04:42;70765.53;;;-148.95;40.00
38558;BME280;24333;42.626;23.308;2023-04-28T08:07:08;70769.66;;;-148.95;40.53
38558;BME280;24333;42.626;23.308;2023-04-28T08:09:49;70755.16;;;-148.95;40.16
38558;BME280;24333;42.626;23.308;2023-04-28T08:12:17;70761.38;;;-148.95;39.53
38558;BME280;24333;42.626;23.308;2023-04-28T08:14:43;70777.97;;;-148.95;39.41
38558;BME280;24333;42.626;23.308;2023-04-28T12:28:41;69919.03;;;-148.95;28.03
38558;BME280;24333;42.626;23.308;2023-04-28T12:31:07;69819.47;;;-148.95;28.67
38558;BME280;24333;42.626;23.308;2023-04-28T12:33:33;69809.09;;;-148.95;28.25
38558;BME280;24333;42.626;23.308;2023-04-28T12:36:03;69846.44;;;-148.95;29.05
38558;BME280;24333;42.626;23.308;2023-04-28T12:38:31;69852.66;;;-148.95;28.96
38558;BME280;24333;42.626;23.308;2023-04-28T12:40:57;69865.09;;;-148.95;29.06
38558;BME280;24333;42.626;23.308;2023-04-28T12:43:23;69871.31;;;-148.95;28.64
38558;BME280;24333;42.626;23.308;2023-04-28T12:45:52;69854.72;;;-148.95;28.01
38558;BME280;24333;42.626;23.308;2023-04-28T12:48:21;69869.25;;;-148.95;27.98
38558;BME280;24333;42.626;23.308;2023-04-28T12:50:49;69829.84;;;-148.95;28.76
38558;BME280;24333;42.626;23.308;2023-04-28T12:53:15;69800.78;;;-148.95;26.93
38558;BME280;24333;42.626;23.308;2023-04-28T12:55:41;69817.38;;;-148.95;27.36
38558;BME280;24333;42.626;23.308;2023-04-28T12:58:07;69867.16;;;-148.95;27.60
38558;BME280;24333;42.626;23.308;2023-04-28T13:00:32;69898.28;;;-148.95;27.97
38558;BME280;24333;42.626;23.308;2023-04-28T13:02:59;69896.22;;;-148.95;28.69
38558;BME280;24333;42.626;23.308;2023-04-28T13:05:25;69829.84;;;-148.95;28.37
38558;BME280;24333;42.626;23.308;2023-04-28T13:07:52;69755.16;;;-148.95;28.30
38558;BME280;24333;42.626;23.308;2023-04-28T13:10:30;69773.81;;;-148.95;28.51
38558;BME280;24333;42.626;23.308;2023-04-28T13:12:59;69815.31;;;-148.95;29.18
38558;BME280;24333;42.626;23.308;2023-04-28T13:23:23;69773.81;;;-148.95;28.19
38558;BME280;24333;42.626;23.308;2023-04-28T13:25:50;69831.91;;;-148.95;28.64
38558;BME280;24333;42.626;23.308;2023-04-28T13:28:29;69881.69;;;-148.95;29.09
38558;BME280;24333;42.626;23.308;2023-04-28T13:31:29;69890.00;;;-148.95;29.37
38558;BME280;24333;42.626;23.308;2023-04-28T13:33:55;69890.00;;;-148.95;29.79
38558;BME280;24333;42.626;23.308;2023-04-28T13:36:24;69867.16;;;-148.95;29.24
38558;BME280;24333;42.626;23.308;2023-04-28T13:38:54;69860.94;;;-148.95;28.26
38558;BME280;24333;42.626;23.308;2023-04-28T13:41:20;69825.69;;;-148.95;28.98
38558;BME280;24333;42.626;23.308;2023-04-28T13:43:46;69829.84;;;-148.95;28.98
38558;BME280;24333;42.626;23.308;2023-04-28T13:46:12;69854.72;;;-148.95;29.17
38558;BME280;24333;42.626;23.308;2023-04-28T13:48:40;69871.31;;;-148.95;29.78
38558;BME280;24333;42.626;23.308;2023-04-28T13:51:08;69894.13;;;-148.95;29.69
38558;BME280;24333;42.626;23.308;2023-04-28T13:53:34;69906.59;;;-148.95;29.61
38558;BME280;24333;42.626;23.308;2023-04-28T13:56:02;69896.22;;;-148.95;29.08
38558;BME280;24333;42.626;23.308;2023-04-28T13:58:28;69863.03;;;-148.95;29.06
38558;BME280;24333;42.626;23.308;2023-04-28T14:00:55;69877.53;;;-148.95;28.85
38558;BME280;24333;42.626;23.308;2023-04-28T14:03:22;69887.91;;;-148.95;29.13
38558;BME280;24333;42.626;23.308;2023-04-28T14:05:54;69910.72;;;-148.95;30.03
38558;BME280;24333;42.626;23.308;2023-04-28T14:08:21;69908.66;;;-148.95;30.47
38558;BME280;24333;42.626;23.308;2023-04-28T14:10:47;69906.59;;;-148.95;29.70
38558;BME280;24333;42.626;23.308;2023-04-28T14:13:35;69894.13;;;-148.95;30.00
38558;BME280;24333;42.626;23.308;2023-04-28T14:16:05;69916.97;;;-148.95;29.11
38558;BME280;24333;42.626;23.308;2023-04-28T14:18:41;69890.00;;;-148.95;28.55
38558;BME280;24333;42.626;23.308;2023-04-28T14:52:56;69858.88;;;-148.95;29.61
38558;BME280;24333;42.626;23.308;2023-04-28T14:55:40;69836.06;;;-148.95;29.69
38558;BME280;24333;42.626;23.308;2023-04-28T14:58:06;69815.31;;;-148.95;29.76
38558;BME280;24333;42.626;23.308;2023-04-28T15:00:33;69734.41;;;-148.95;28.31
38558;BME280;24333;42.626;23.308;2023-04-28T15:03:17;69570.53;;;-148.95;27.87
38558;BME280;24333;42.626;23.308;2023-04-28T15:09:30;69392.16;;;-148.95;26.19
38558;BME280;24333;42.626;23.308;2023-04-28T15:11:56;69327.84;;;-148.95;25.54
38558;BME280;24333;42.626;23.308;2023-04-28T15:14:22;69319.56;;;-148.95;26.13
38558;BME280;24333;42.626;23.308;2023-04-28T15:16:47;69348.59;;;-148.95;25.77
38558;BME280;24333;42.626;23.308;2023-04-28T15:19:13;69379.72;;;-148.95;26.23
38558;BME280;24333;42.626;23.308;2023-04-28T15:21:39;69298.81;;;-148.95;26.15
38558;BME280;24333;42.626;23.308;2023-04-28T15:24:05;69305.03;;;-148.95;25.61
38558;BME280;24333;42.626;23.308;2023-04-28T15:26:31;69358.97;;;-148.95;26.18
38558;BME280;24333;42.626;23.308;2023-04-28T15:28:57;69433.63;;;-148.95;26.51
38558;BME280;24333;42.626;23.308;2023-04-28T15:31:23;69558.09;;;-148.95;27.00
38558;BME280;24333;42.626;23.308;2023-04-28T15:33:50;69690.84;;;-148.95;28.72
38558;BME280;24333;42.626;23.308;2023-04-28T15:36:16;69740.63;;;-148.95;28.90
38558;BME280;24333;42.626;23.308;2023-04-28T15:54:19;69782.13;;;-148.95;29.10
38558;BME280;24333;42.626;23.308;2023-04-28T15:56:45;69819.47;;;-148.95;29.12
38558;BME280;24333;42.626;23.308;2023-04-28T15:59:10;69827.75;;;-148.95;29.31
38558;BME280;24333;42.626;23.308;2023-04-28T16:01:39;69831.91;;;-148.95;29.68
38558;BME280;24333;42.626;23.308;2023-04-28T16:04:04;69838.13;;;-148.95;29.74
38558;BME280;24333;42.626;23.308;2023-04-28T16:06:32;69858.88;;;-148.95;29.91
38558;BME280;24333;42.626;23.308;2023-04-28T16:09:22;69860.94;;;-148.95;29.89
38558;BME280;24333;42.626;23.308;2023-04-28T16:11:48;69881.69;;;-148.95;30.43
38558;BME280;24333;42.626;23.308;2023-04-28T16:14:13;69894.13;;;-148.95;30.24
38558;BME280;24333;42.626;23.308;2023-04-28T16:16:39;69916.97;;;-148.95;30.74
38558;BME280;24333;42.626;23.308;2023-04-28T16:22:54;69937.69;;;-148.95;31.06
38558;BME280;24333;42.626;23.308;2023-04-28T16:25:20;69898.28;;;-148.95;31.03
38558;BME280;24333;42.626;23.308;2023-04-28T16:27:46;69807.00;;;-148.95;30.89
38558;BME280;24333;42.626;23.308;2023-04-28T16:30:11;69784.19;;;-148.95;29.43
38558;BME280;24333;42.626;23.308;2023-04-28T16:32:37;69848.50;;;-148.95;30.03
38558;BME280;24333;42.626;23.308;2023-04-28T16:35:03;69912.81;;;-148.95;30.25
38558;BME280;24333;42.626;23.308;2023-04-28T16:37:30;69946.00;;;-148.95;30.51
38558;BME280;24333;42.626;23.308;2023-04-28T16:39:56;69968.81;;;-148.95;31.35
38558;BME280;24333;42.626;23.308;2023-04-28T16:42:21;69991.63;;;-148.95;32.09
38558;BME280;24333;42.626;23.308;2023-04-28T16:44:47;70002.00;;;-148.95;33.43
38558;BME280;24333;42.626;23.308;2023-04-28T16:47:12;70022.75;;;-148.95;33.05
38558;BME280;24333;42.626;23.308;2023-04-28T16:49:39;70041.44;;;-148.95;34.16
38558;BME280;24333;42.626;23.308;2023-04-28T16:52:04;70051.81;;;-148.95;35.30
38558;BME280;24333;42.626;23.308;2023-04-28T16:54:31;70074.63;;;-148.95;33.98
38558;BME280;24333;42.626;23.308;2023-04-28T16:56:58;70085.00;;;-148.95;35.04
38558;BME280;24333;42.626;23.308;2023-04-28T16:59:25;70101.59;;;-148.95;35.68
38558;BME280;24333;42.626;23.308;2023-04-28T17:01:55;70124.41;;;-148.95;34.94
38558;BME280;24333;42.626;23.308;2023-04-28T17:04:20;70143.09;;;-148.95;34.81
38558;BME280;24333;42.626;23.308;2023-04-28T17:06:48;70155.53;;;-148.95;34.57
38558;BME280;24333;42.626;23.308;2023-04-28T17:09:13;70170.06;;;-148.95;34.93
38558;BME280;24333;42.626;23.308;2023-04-28T17:11:38;70176.28;;;-148.95;35.61
38558;BME280;24333;42.626;23.308;2023-04-28T17:14:04;70184.56;;;-148.95;36.58
38558;BME280;24333;42.626;23.308;2023-04-28T17:16:30;70199.09;;;-148.95;37.00
38558;BME280;24333;42.626;23.308;2023-04-28T17:18:56;70221.91;;;-148.95;37.07
38558;BME280;24333;42.626;23.308;2023-04-28T17:21:22;70240.59;;;-148.95;37.63
38558;BME280;24333;42.626;23.308;2023-04-28T17:24:00;70261.34;;;-148.95;37.22
38558;BME280;24333;42.626;23.308;2023-04-28T17:26:30;70271.72;;;-148.95;37.09
38558;BME280;24333;42.626;23.308;2023-04-28T17:28:57;70296.59;;;-148.95;37.62
38558;BME280;24333;42.626;23.308;2023-04-28T17:31:27;70309.06;;;-148.95;37.76
38558;BME280;24333;42.626;23.308;2023-04-28T17:34:18;70327.72;;;-148.95;38.84
38558;BME280;24333;42.626;23.308;2023-04-28T17:37:15;70340.19;;;-148.95;38.11
38558;BME280;24333;42.626;23.308;2023-04-28T17:39:41;70354.69;;;-148.95;37.76
38558;BME280;24333;42.626;23.308;2023-04-28T17:42:06;70375.44;;;-148.95;37.12
38558;BME280;24333;42.626;23.308;2023-04-28T17:44:31;70375.44;;;-148.95;38.70
38558;BME280;24333;42.626;23.308;2023-04-28T17:46:57;70387.91;;;-148.95;38.76
38558;BME280;24333;42.626;23.308;2023-04-28T17:49:22;70392.03;;;-148.95;38.67
38558;BME280;24333;42.626;23.308;2023-04-28T17:52:15;70408.63;;;-148.95;38.04
